sensor_id;sensor_type;location;lat;lon;timestamp;P1;durP1;ratioP1;P2;durP2;ratioP2
62353;SDS011;48391;49.184;2.418;2023-04-15T00:02:14;0.65;;;0.55;;
62353;SDS011;48391;49.184;2.418;2023-04-15T00:04:42;0.52;;;0.20;;
62353;SDS011;48391;49.184;2.418;2023-04-15T00:07:08;0.35;;;0.35;;
62353;SDS011;48391;49.184;2.418;2023-04-15T00:09:34;0.65;;;0.50;;
62353;SDS011;48391;49.184;2.418;2023-04-15T00:12:00;1.98;;;0.70;;
62353;SDS011;48391;49.184;2.418;2023-04-15T00:14:26;0.77;;;0.40;;
62353;SDS011;48391;49.184;2.418;2023-04-15T00:16:52;1.65;;;0.52;;
62353;SDS011;48391;49.184;2.418;2023-04-15T00:19:20;1.75;;;0.35;;
62353;SDS011;48391;49.184;2.418;2023-04-15T00:21:46;1.33;;;0.73;;
62353;SDS011;48391;49.184;2.418;2023-04-15T00:24:12;0.20;;;0.20;;
62353;SDS011;48391;49.184;2.418;2023-04-15T00:26:38;0.80;;;0.80;;
62353;SDS011;48391;49.184;2.418;2023-04-15T00:29:04;1.42;;;0.50;;
62353;SDS011;48391;49.184;2.418;2023-04-15T00:31:30;0.40;;;0.40;;
62353;SDS011;48391;49.184;2.418;2023-04-15T00:33:56;1.20;;;0.32;;
62353;SDS011;48391;49.184;2.418;2023-04-15T00:36:23;2.30;;;0.50;;
62353;SDS011;48391;49.184;2.418;2023-04-15T00:38:50;0.35;;;0.35;;
62353;SDS011;48391;49.184;2.418;2023-04-15T00:41:17;0.20;;;0.20;;
62353;SDS011;48391;49.184;2.418;2023-04-15T00:43:43;0.45;;;0.40;;
62353;SDS011;48391;49.184;2.418;2023-04-15T00:46:09;2.00;;;0.40;;
62353;SDS011;48391;49.184;2.418;2023-04-15T00:48:37;1.38;;;0.35;;
62353;SDS011;48391;49.184;2.418;2023-04-15T00:51:03;0.82;;;0.50;;
62353;SDS011;48391;49.184;2.418;2023-04-15T00:53:29;1.25;;;0.25;;
62353;SDS011;48391;49.184;2.418;2023-04-15T00:55:55;0.30;;;0.10;;
62353;SDS011;48391;49.184;2.418;2023-04-15T00:58:21;1.02;;;0.20;;
62353;SDS011;48391;49.184;2.418;2023-04-15T01:00:48;0.30;;;0.30;;
62353;SDS011;48391;49.184;2.418;2023-04-15T01:03:18;0.40;;;0.20;;
62353;SDS011;48391;49.184;2.418;2023-04-15T01:05:44;0.50;;;0.28;;
62353;SDS011;48391;49.184;2.418;2023-04-15T01:08:10;0.25;;;0.25;;
62353;SDS011;48391;49.184;2.418;2023-04-15T01:10:37;1.27;;;0.40;;
62353;SDS011;48391;49.184;2.418;2023-04-15T01:13:03;0.65;;;0.28;;
62353;SDS011;48391;49.184;2.418;2023-04-15T01:15:29;0.40;;;0.40;;
62353;SDS011;48391;49.184;2.418;2023-04-15T01:17:59;0.38;;;0.20;;
62353;SDS011;48391;49.184;2.418;2023-04-15T01:20:25;0.25;;;0.25;;
62353;SDS011;48391;49.184;2.418;2023-04-15T01:22:52;0.52;;;0.52;;
62353;SDS011;48391;49.184;2.418;2023-04-15T01:25:27;0.55;;;0.45;;
62353;SDS011;48391;49.184;2.418;2023-04-15T01:27:55;0.77;;;0.40;;
62353;SDS011;48391;49.184;2.418;2023-04-15T01:30:22;0.93;;;0.60;;
62353;SDS011;48391;49.184;2.418;2023-04-15T01:32:48;0.80;;;0.73;;
62353;SDS011;48391;49.184;2.418;2023-04-15T01:35:14;0.57;;;0.43;;
62353;SDS011;48391;49.184;2.418;2023-04-15T01:37:40;0.55;;;0.55;;
62353;SDS011;48391;49.184;2.418;2023-04-15T01:40:06;0.43;;;0.40;;
62353;SDS011;48391;49.184;2.418;2023-04-15T01:42:33;0.73;;;0.52;;
62353;SDS011;48391;49.184;2.418;2023-04-15T01:44:59;1.40;;;0.75;;
62353;SDS011;48391;49.184;2.418;2023-04-15T01:47:26;0.30;;;0.30;;
62353;SDS011;48391;49.184;2.418;2023-04-15T01:49:52;0.93;;;0.80;;
62353;SDS011;48391;49.184;2.418;2023-04-15T01:52:18;0.65;;;0.65;;
62353;SDS011;48391;49.184;2.418;2023-04-15T01:54:44;0.63;;;0.30;;
62353;SDS011;48391;49.184;2.418;2023-04-15T01:57:10;0.73;;;0.50;;
62353;SDS011;48391;49.184;2.418;2023-04-15T01:59:36;0.77;;;0.52;;
62353;SDS011;48391;49.184;2.418;2023-04-15T02:02:02;0.20;;;0.20;;
62353;SDS011;48391;49.184;2.418;2023-04-15T02:04:28;0.10;;;0.10;;
62353;SDS011;48391;49.184;2.418;2023-04-15T02:06:54;0.55;;;0.43;;
62353;SDS011;48391;49.184;2.418;2023-04-15T02:09:20;1.27;;;0.52;;
62353;SDS011;48391;49.184;2.418;2023-04-15T02:11:46;0.63;;;0.30;;
62353;SDS011;48391;49.184;2.418;2023-04-15T02:14:13;0.20;;;0.20;;
62353;SDS011;48391;49.184;2.418;2023-04-15T02:16:39;0.90;;;0.17;;
62353;SDS011;48391;49.184;2.418;2023-04-15T02:19:05;0.10;;;0.10;;
62353;SDS011;48391;49.184;2.418;2023-04-15T02:21:31;0.25;;;0.20;;
62353;SDS011;48391;49.184;2.418;2023-04-15T02:23:59;0.20;;;0.10;;
62353;SDS011;48391;49.184;2.418;2023-04-15T02:26:26;0.25;;;0.10;;
62353;SDS011;48391;49.184;2.418;2023-04-15T02:28:56;0.20;;;0.20;;
62353;SDS011;48391;49.184;2.418;2023-04-15T02:31:22;0.30;;;0.30;;
62353;SDS011;48391;49.184;2.418;2023-04-15T02:33:48;0.45;;;0.40;;
62353;SDS011;48391;49.184;2.418;2023-04-15T02:36:14;0.65;;;0.65;;
62353;SDS011;48391;49.184;2.418;2023-04-15T02:38:40;0.70;;;0.28;;
62353;SDS011;48391;49.184;2.418;2023-04-15T02:41:07;0.50;;;0.10;;
62353;SDS011;48391;49.184;2.418;2023-04-15T02:43:34;0.17;;;0.10;;
62353;SDS011;48391;49.184;2.418;2023-04-15T02:46:00;0.30;;;0.30;;
62353;SDS011;48391;49.184;2.418;2023-04-15T02:48:26;0.20;;;0.17;;
62353;SDS011;48391;49.184;2.418;2023-04-15T02:50:52;0.35;;;0.35;;
62353;SDS011;48391;49.184;2.418;2023-04-15T02:53:18;0.50;;;0.30;;
62353;SDS011;48391;49.184;2.418;2023-04-15T02:55:44;0.47;;;0.28;;
62353;SDS011;48391;49.184;2.418;2023-04-15T02:58:10;0.30;;;0.20;;
62353;SDS011;48391;49.184;2.418;2023-04-15T03:00:36;0.17;;;0.17;;
62353;SDS011;48391;49.184;2.418;2023-04-15T03:03:04;0.47;;;0.30;;
62353;SDS011;48391;49.184;2.418;2023-04-15T03:05:30;0.50;;;0.50;;
62353;SDS011;48391;49.184;2.418;2023-04-15T03:07:56;0.77;;;0.38;;
62353;SDS011;48391;49.184;2.418;2023-04-15T03:10:22;0.50;;;0.50;;
62353;SDS011;48391;49.184;2.418;2023-04-15T03:12:48;0.40;;;0.30;;
62353;SDS011;48391;49.184;2.418;2023-04-15T03:15:14;0.50;;;0.30;;
62353;SDS011;48391;49.184;2.418;2023-04-15T03:17:41;0.50;;;0.50;;
62353;SDS011;48391;49.184;2.418;2023-04-15T03:20:07;0.40;;;0.40;;
62353;SDS011;48391;49.184;2.418;2023-04-15T03:22:34;0.25;;;0.20;;
62353;SDS011;48391;49.184;2.418;2023-04-15T03:25:00;0.55;;;0.35;;
62353;SDS011;48391;49.184;2.418;2023-04-15T03:27:26;0.22;;;0.10;;
62353;SDS011;48391;49.184;2.418;2023-04-15T03:29:52;0.20;;;0.20;;
62353;SDS011;48391;49.184;2.418;2023-04-15T03:32:18;0.10;;;0.10;;
62353;SDS011;48391;49.184;2.418;2023-04-15T03:34:44;0.30;;;0.30;;
62353;SDS011;48391;49.184;2.418;2023-04-15T03:37:10;0.40;;;0.10;;
62353;SDS011;48391;49.184;2.418;2023-04-15T03:39:36;0.30;;;0.20;;
62353;SDS011;48391;49.184;2.418;2023-04-15T03:42:02;0.25;;;0.20;;
62353;SDS011;48391;49.184;2.418;2023-04-15T03:44:28;0.20;;;0.20;;
62353;SDS011;48391;49.184;2.418;2023-04-15T03:46:54;1.00;;;0.20;;
62353;SDS011;48391;49.184;2.418;2023-04-15T03:49:20;0.20;;;0.10;;
62353;SDS011;48391;49.184;2.418;2023-04-15T03:51:47;0.35;;;0.15;;
62353;SDS011;48391;49.184;2.418;2023-04-15T03:54:13;0.43;;;0.22;;
62353;SDS011;48391;49.184;2.418;2023-04-15T03:56:39;0.20;;;0.10;;
62353;SDS011;48391;49.184;2.418;2023-04-15T03:59:05;0.35;;;0.32;;
62353;SDS011;48391;49.184;2.418;2023-04-15T04:01:31;0.15;;;0.03;;
62353;SDS011;48391;49.184;2.418;2023-04-15T04:03:57;0.30;;;0.30;;
62353;SDS011;48391;49.184;2.418;2023-04-15T04:06:23;0.28;;;0.20;;
62353;SDS011;48391;49.184;2.418;2023-04-15T04:08:50;0.20;;;0.20;;
62353;SDS011;48391;49.184;2.418;2023-04-15T04:11:16;0.10;;;0.10;;
62353;SDS011;48391;49.184;2.418;2023-04-15T04:13:42;1.52;;;0.45;;
62353;SDS011;48391;49.184;2.418;2023-04-15T04:16:08;0.30;;;0.30;;
62353;SDS011;48391;49.184;2.418;2023-04-15T04:18:34;0.50;;;0.15;;
62353;SDS011;48391;49.184;2.418;2023-04-15T04:21:01;0.65;;;0.40;;
62353;SDS011;48391;49.184;2.418;2023-04-15T04:23:27;0.88;;;0.30;;
62353;SDS011;48391;49.184;2.418;2023-04-15T04:25:53;0.60;;;0.60;;
62353;SDS011;48391;49.184;2.418;2023-04-15T04:28:19;0.50;;;0.50;;
62353;SDS011;48391;49.184;2.418;2023-04-15T04:30:45;0.22;;;0.22;;
62353;SDS011;48391;49.184;2.418;2023-04-15T04:33:11;0.80;;;0.25;;
62353;SDS011;48391;49.184;2.418;2023-04-15T04:35:37;0.70;;;0.47;;
62353;SDS011;48391;49.184;2.418;2023-04-15T04:38:03;0.55;;;0.55;;
62353;SDS011;48391;49.184;2.418;2023-04-15T04:40:29;0.50;;;0.50;;
62353;SDS011;48391;49.184;2.418;2023-04-15T04:42:55;0.30;;;0.30;;
62353;SDS011;48391;49.184;2.418;2023-04-15T04:45:21;0.90;;;0.45;;
62353;SDS011;48391;49.184;2.418;2023-04-15T04:47:47;0.45;;;0.30;;
62353;SDS011;48391;49.184;2.418;2023-04-15T04:50:13;0.73;;;0.55;;
62353;SDS011;48391;49.184;2.418;2023-04-15T04:52:40;0.55;;;0.55;;
62353;SDS011;48391;49.184;2.418;2023-04-15T04:55:06;1.60;;;1.25;;
62353;SDS011;48391;49.184;2.418;2023-04-15T04:57:32;0.82;;;0.60;;
62353;SDS011;48391;49.184;2.418;2023-04-15T05:00:03;0.77;;;0.75;;
62353;SDS011;48391;49.184;2.418;2023-04-15T05:02:29;1.00;;;1.00;;
62353;SDS011;48391;49.184;2.418;2023-04-15T05:04:56;1.15;;;1.05;;
62353;SDS011;48391;49.184;2.418;2023-04-15T05:07:22;1.02;;;1.00;;
62353;SDS011;48391;49.184;2.418;2023-04-15T05:09:48;1.30;;;1.20;;
62353;SDS011;48391;49.184;2.418;2023-04-15T05:12:14;1.13;;;0.80;;
62353;SDS011;48391;49.184;2.418;2023-04-15T05:14:40;2.38;;;2.20;;
62353;SDS011;48391;49.184;2.418;2023-04-15T05:17:07;3.03;;;2.78;;
62353;SDS011;48391;49.184;2.418;2023-04-15T05:19:33;1.05;;;1.05;;
62353;SDS011;48391;49.184;2.418;2023-04-15T05:21:59;1.42;;;1.33;;
62353;SDS011;48391;49.184;2.418;2023-04-15T05:24:25;1.48;;;1.38;;
62353;SDS011;48391;49.184;2.418;2023-04-15T05:26:51;0.88;;;0.63;;
62353;SDS011;48391;49.184;2.418;2023-04-15T05:29:17;1.23;;;1.13;;
62353;SDS011;48391;49.184;2.418;2023-04-15T05:31:44;0.88;;;0.88;;
62353;SDS011;48391;49.184;2.418;2023-04-15T05:34:10;0.80;;;0.80;;
62353;SDS011;48391;49.184;2.418;2023-04-15T05:36:36;0.50;;;0.50;;
62353;SDS011;48391;49.184;2.418;2023-04-15T05:39:02;0.90;;;0.90;;
62353;SDS011;48391;49.184;2.418;2023-04-15T05:41:28;0.50;;;0.50;;
62353;SDS011;48391;49.184;2.418;2023-04-15T05:43:54;0.47;;;0.47;;
62353;SDS011;48391;49.184;2.418;2023-04-15T05:46:20;1.00;;;0.52;;
62353;SDS011;48391;49.184;2.418;2023-04-15T05:48:46;0.45;;;0.45;;
62353;SDS011;48391;49.184;2.418;2023-04-15T05:51:12;1.25;;;0.57;;
62353;SDS011;48391;49.184;2.418;2023-04-15T05:53:38;0.52;;;0.43;;
62353;SDS011;48391;49.184;2.418;2023-04-15T05:56:05;0.50;;;0.45;;
62353;SDS011;48391;49.184;2.418;2023-04-15T05:58:31;1.33;;;0.73;;
62353;SDS011;48391;49.184;2.418;2023-04-15T06:00:58;0.47;;;0.47;;
62353;SDS011;48391;49.184;2.418;2023-04-15T06:03:24;0.40;;;0.40;;
62353;SDS011;48391;49.184;2.418;2023-04-15T06:05:50;1.92;;;1.05;;
62353;SDS011;48391;49.184;2.418;2023-04-15T06:08:16;0.95;;;0.95;;
62353;SDS011;48391;49.184;2.418;2023-04-15T06:10:42;1.17;;;0.88;;
62353;SDS011;48391;49.184;2.418;2023-04-15T06:13:08;0.88;;;0.88;;
62353;SDS011;48391;49.184;2.418;2023-04-15T06:15:34;0.82;;;0.75;;
62353;SDS011;48391;49.184;2.418;2023-04-15T06:18:00;1.50;;;1.40;;
62353;SDS011;48391;49.184;2.418;2023-04-15T06:20:27;0.70;;;0.63;;
62353;SDS011;48391;49.184;2.418;2023-04-15T06:22:53;0.80;;;0.80;;
62353;SDS011;48391;49.184;2.418;2023-04-15T06:25:19;0.70;;;0.70;;
62353;SDS011;48391;49.184;2.418;2023-04-15T06:27:45;0.40;;;0.40;;
62353;SDS011;48391;49.184;2.418;2023-04-15T06:30:12;0.73;;;0.73;;
62353;SDS011;48391;49.184;2.418;2023-04-15T06:32:38;0.70;;;0.47;;
62353;SDS011;48391;49.184;2.418;2023-04-15T06:35:04;0.88;;;0.88;;
62353;SDS011;48391;49.184;2.418;2023-04-15T06:37:30;1.20;;;0.60;;
62353;SDS011;48391;49.184;2.418;2023-04-15T06:39:56;0.90;;;0.77;;
62353;SDS011;48391;49.184;2.418;2023-04-15T06:42:22;0.65;;;0.65;;
62353;SDS011;48391;49.184;2.418;2023-04-15T06:44:48;0.73;;;0.73;;
62353;SDS011;48391;49.184;2.418;2023-04-15T06:47:15;0.57;;;0.57;;
62353;SDS011;48391;49.184;2.418;2023-04-15T06:49:41;1.50;;;0.82;;
62353;SDS011;48391;49.184;2.418;2023-04-15T06:52:07;0.90;;;0.90;;
62353;SDS011;48391;49.184;2.418;2023-04-15T06:54:34;1.13;;;0.88;;
62353;SDS011;48391;49.184;2.418;2023-04-15T06:56:59;0.80;;;0.80;;
62353;SDS011;48391;49.184;2.418;2023-04-15T06:59:26;1.30;;;1.20;;
62353;SDS011;48391;49.184;2.418;2023-04-15T07:01:52;2.35;;;1.50;;
62353;SDS011;48391;49.184;2.418;2023-04-15T07:04:18;1.40;;;1.30;;
62353;SDS011;48391;49.184;2.418;2023-04-15T07:06:44;1.73;;;1.63;;
62353;SDS011;48391;49.184;2.418;2023-04-15T07:09:10;0.80;;;0.80;;
62353;SDS011;48391;49.184;2.418;2023-04-15T07:11:36;4.68;;;0.90;;
62353;SDS011;48391;49.184;2.418;2023-04-15T07:14:02;1.33;;;0.90;;
62353;SDS011;48391;49.184;2.418;2023-04-15T07:16:28;1.25;;;1.15;;
62353;SDS011;48391;49.184;2.418;2023-04-15T07:18:55;0.70;;;0.68;;
62353;SDS011;48391;49.184;2.418;2023-04-15T07:21:21;0.60;;;0.60;;
62353;SDS011;48391;49.184;2.418;2023-04-15T07:23:47;1.52;;;1.20;;
62353;SDS011;48391;49.184;2.418;2023-04-15T07:26:13;0.50;;;0.50;;
62353;SDS011;48391;49.184;2.418;2023-04-15T07:28:39;0.60;;;0.60;;
62353;SDS011;48391;49.184;2.418;2023-04-15T07:31:05;1.48;;;0.82;;
62353;SDS011;48391;49.184;2.418;2023-04-15T07:33:31;1.05;;;0.95;;
62353;SDS011;48391;49.184;2.418;2023-04-15T07:35:57;0.45;;;0.45;;
62353;SDS011;48391;49.184;2.418;2023-04-15T07:38:24;0.73;;;0.73;;
62353;SDS011;48391;49.184;2.418;2023-04-15T07:40:51;1.48;;;0.82;;
62353;SDS011;48391;49.184;2.418;2023-04-15T07:43:17;0.60;;;0.60;;
62353;SDS011;48391;49.184;2.418;2023-04-15T07:45:45;0.17;;;0.13;;
62353;SDS011;48391;49.184;2.418;2023-04-15T07:48:11;0.30;;;0.30;;
62353;SDS011;48391;49.184;2.418;2023-04-15T07:50:37;0.63;;;0.25;;
62353;SDS011;48391;49.184;2.418;2023-04-15T07:53:03;0.10;;;0.10;;
62353;SDS011;48391;49.184;2.418;2023-04-15T07:55:30;0.10;;;0.10;;
62353;SDS011;48391;49.184;2.418;2023-04-15T07:57:56;0.50;;;0.20;;
62353;SDS011;48391;49.184;2.418;2023-04-15T08:00:22;0.43;;;0.30;;
62353;SDS011;48391;49.184;2.418;2023-04-15T08:02:48;0.20;;;0.10;;
62353;SDS011;48391;49.184;2.418;2023-04-15T08:05:16;0.32;;;0.25;;
62353;SDS011;48391;49.184;2.418;2023-04-15T08:07:42;0.40;;;0.40;;
62353;SDS011;48391;49.184;2.418;2023-04-15T08:10:08;0.45;;;0.45;;
62353;SDS011;48391;49.184;2.418;2023-04-15T08:12:35;0.45;;;0.45;;
62353;SDS011;48391;49.184;2.418;2023-04-15T08:15:01;0.40;;;0.40;;
62353;SDS011;48391;49.184;2.418;2023-04-15T08:17:27;0.17;;;0.17;;
62353;SDS011;48391;49.184;2.418;2023-04-15T08:19:53;0.10;;;0.10;;
62353;SDS011;48391;49.184;2.418;2023-04-15T08:22:19;0.50;;;0.50;;
62353;SDS011;48391;49.184;2.418;2023-04-15T08:24:45;1.58;;;0.20;;
62353;SDS011;48391;49.184;2.418;2023-04-15T08:27:11;0.17;;;0.17;;
62353;SDS011;48391;49.184;2.418;2023-04-15T08:29:37;0.75;;;0.32;;
62353;SDS011;48391;49.184;2.418;2023-04-15T08:32:04;0.30;;;0.30;;
62353;SDS011;48391;49.184;2.418;2023-04-15T08:34:31;0.32;;;0.22;;
62353;SDS011;48391;49.184;2.418;2023-04-15T08:36:58;0.20;;;0.20;;
62353;SDS011;48391;49.184;2.418;2023-04-15T08:39:24;0.40;;;0.25;;
62353;SDS011;48391;49.184;2.418;2023-04-15T08:42:00;0.13;;;0.13;;
62353;SDS011;48391;49.184;2.418;2023-04-15T08:44:34;0.20;;;0.20;;
62353;SDS011;48391;49.184;2.418;2023-04-15T08:47:06;0.63;;;0.43;;
62353;SDS011;48391;49.184;2.418;2023-04-15T08:49:32;0.73;;;0.32;;
62353;SDS011;48391;49.184;2.418;2023-04-15T08:52:00;0.40;;;0.40;;
62353;SDS011;48391;49.184;2.418;2023-04-15T08:54:28;0.63;;;0.60;;
62353;SDS011;48391;49.184;2.418;2023-04-15T08:56:56;1.17;;;0.60;;
62353;SDS011;48391;49.184;2.418;2023-04-15T08:59:22;0.47;;;0.47;;
62353;SDS011;48391;49.184;2.418;2023-04-15T09:01:49;2.65;;;0.88;;
62353;SDS011;48391;49.184;2.418;2023-04-15T09:04:15;0.75;;;0.75;;
62353;SDS011;48391;49.184;2.418;2023-04-15T09:06:41;0.52;;;0.52;;
62353;SDS011;48391;49.184;2.418;2023-04-15T09:09:08;0.73;;;0.30;;
62353;SDS011;48391;49.184;2.418;2023-04-15T09:11:34;0.60;;;0.40;;
62353;SDS011;48391;49.184;2.418;2023-04-15T09:14:00;0.80;;;0.75;;
62353;SDS011;48391;49.184;2.418;2023-04-15T09:16:27;2.13;;;0.55;;
62353;SDS011;48391;49.184;2.418;2023-04-15T09:18:53;0.60;;;0.60;;
62353;SDS011;48391;49.184;2.418;2023-04-15T09:21:19;0.80;;;0.75;;
62353;SDS011;48391;49.184;2.418;2023-04-15T09:24:00;0.50;;;0.50;;
62353;SDS011;48391;49.184;2.418;2023-04-15T09:29:03;1.08;;;1.08;;
62353;SDS011;48391;49.184;2.418;2023-04-15T09:31:30;1.20;;;1.10;;
62353;SDS011;48391;49.184;2.418;2023-04-15T09:33:57;0.98;;;0.88;;
62353;SDS011;48391;49.184;2.418;2023-04-15T09:36:23;0.95;;;0.75;;
62353;SDS011;48391;49.184;2.418;2023-04-15T09:38:55;1.25;;;0.90;;
62353;SDS011;48391;49.184;2.418;2023-04-15T09:41:21;1.40;;;1.30;;
62353;SDS011;48391;49.184;2.418;2023-04-15T09:43:48;1.60;;;1.48;;
62353;SDS011;48391;49.184;2.418;2023-04-15T09:46:14;1.67;;;0.98;;
62353;SDS011;48391;49.184;2.418;2023-04-15T09:48:40;1.30;;;1.30;;
62353;SDS011;48391;49.184;2.418;2023-04-15T09:51:06;1.38;;;1.27;;
62353;SDS011;48391;49.184;2.418;2023-04-15T09:53:33;0.80;;;0.80;;
62353;SDS011;48391;49.184;2.418;2023-04-15T09:55:59;1.20;;;0.80;;
62353;SDS011;48391;49.184;2.418;2023-04-15T09:58:30;2.72;;;0.73;;
62353;SDS011;48391;49.184;2.418;2023-04-15T10:00:58;0.80;;;0.80;;
62353;SDS011;48391;49.184;2.418;2023-04-15T10:03:26;2.05;;;0.80;;
62353;SDS011;48391;49.184;2.418;2023-04-15T10:05:53;0.93;;;0.85;;
62353;SDS011;48391;49.184;2.418;2023-04-15T10:08:20;1.25;;;0.68;;
62353;SDS011;48391;49.184;2.418;2023-04-15T10:10:47;0.70;;;0.70;;
62353;SDS011;48391;49.184;2.418;2023-04-15T10:13:15;1.63;;;0.80;;
62353;SDS011;48391;49.184;2.418;2023-04-15T10:15:43;0.70;;;0.57;;
62353;SDS011;48391;49.184;2.418;2023-04-15T10:18:10;0.52;;;0.50;;
62353;SDS011;48391;49.184;2.418;2023-04-15T10:20:37;0.68;;;0.68;;
62353;SDS011;48391;49.184;2.418;2023-04-15T10:23:03;0.73;;;0.73;;
62353;SDS011;48391;49.184;2.418;2023-04-15T10:25:30;0.45;;;0.45;;
62353;SDS011;48391;49.184;2.418;2023-04-15T10:27:58;0.45;;;0.43;;
62353;SDS011;48391;49.184;2.418;2023-04-15T10:30:24;0.68;;;0.60;;
62353;SDS011;48391;49.184;2.418;2023-04-15T10:32:50;0.80;;;0.80;;
62353;SDS011;48391;49.184;2.418;2023-04-15T10:35:17;1.00;;;0.90;;
62353;SDS011;48391;49.184;2.418;2023-04-15T10:37:43;0.85;;;0.85;;
62353;SDS011;48391;49.184;2.418;2023-04-15T10:40:31;0.77;;;0.77;;
62353;SDS011;48391;49.184;2.418;2023-04-15T10:42:56;0.75;;;0.75;;
62353;SDS011;48391;49.184;2.418;2023-04-15T10:45:26;1.00;;;1.00;;
62353;SDS011;48391;49.184;2.418;2023-04-15T10:47:55;0.98;;;0.82;;
62353;SDS011;48391;49.184;2.418;2023-04-15T10:50:24;0.63;;;0.63;;
62353;SDS011;48391;49.184;2.418;2023-04-15T10:52:50;1.52;;;0.70;;
62353;SDS011;48391;49.184;2.418;2023-04-15T10:55:21;0.47;;;0.47;;
62353;SDS011;48391;49.184;2.418;2023-04-15T11:00:14;1.00;;;0.93;;
62353;SDS011;48391;49.184;2.418;2023-04-15T11:02:44;0.50;;;0.50;;
62353;SDS011;48391;49.184;2.418;2023-04-15T11:05:11;0.63;;;0.40;;
62353;SDS011;48391;49.184;2.418;2023-04-15T11:07:39;3.03;;;1.08;;
62353;SDS011;48391;49.184;2.418;2023-04-15T11:12:45;0.50;;;0.50;;
62353;SDS011;48391;49.184;2.418;2023-04-15T11:17:54;1.20;;;0.40;;
62353;SDS011;48391;49.184;2.418;2023-04-15T11:20:20;2.88;;;0.75;;
62353;SDS011;48391;49.184;2.418;2023-04-15T11:22:50;1.20;;;1.10;;
62353;SDS011;48391;49.184;2.418;2023-04-15T11:25:23;1.23;;;1.13;;
62353;SDS011;48391;49.184;2.418;2023-04-15T11:27:50;1.90;;;1.00;;
62353;SDS011;48391;49.184;2.418;2023-04-15T11:30:18;1.23;;;1.15;;
62353;SDS011;48391;49.184;2.418;2023-04-15T11:32:51;1.10;;;1.00;;
62353;SDS011;48391;49.184;2.418;2023-04-15T11:35:17;1.55;;;1.00;;
62353;SDS011;48391;49.184;2.418;2023-04-15T11:37:44;2.25;;;1.27;;
62353;SDS011;48391;49.184;2.418;2023-04-15T11:40:10;1.38;;;0.82;;
62353;SDS011;48391;49.184;2.418;2023-04-15T11:42:36;0.98;;;0.95;;
62353;SDS011;48391;49.184;2.418;2023-04-15T11:45:12;0.90;;;0.73;;
62353;SDS011;48391;49.184;2.418;2023-04-15T11:47:40;1.02;;;0.93;;
62353;SDS011;48391;49.184;2.418;2023-04-15T11:50:40;0.73;;;0.73;;
62353;SDS011;48391;49.184;2.418;2023-04-15T11:53:00;1.40;;;1.00;;
62353;SDS011;48391;49.184;2.418;2023-04-15T11:55:26;1.05;;;0.75;;
62353;SDS011;48391;49.184;2.418;2023-04-15T12:00:32;1.88;;;1.08;;
62353;SDS011;48391;49.184;2.418;2023-04-15T12:13:54;0.43;;;0.40;;
62353;SDS011;48391;49.184;2.418;2023-04-15T12:16:21;0.82;;;0.55;;
62353;SDS011;48391;49.184;2.418;2023-04-15T12:18:52;0.82;;;0.60;;
62353;SDS011;48391;49.184;2.418;2023-04-15T12:21:20;0.90;;;0.60;;
62353;SDS011;48391;49.184;2.418;2023-04-15T12:23:50;0.35;;;0.35;;
62353;SDS011;48391;49.184;2.418;2023-04-15T12:26:16;1.85;;;0.30;;
62353;SDS011;48391;49.184;2.418;2023-04-15T12:28:43;0.52;;;0.50;;
62353;SDS011;48391;49.184;2.418;2023-04-15T12:31:09;2.83;;;0.85;;
62353;SDS011;48391;49.184;2.418;2023-04-15T12:33:37;0.45;;;0.30;;
62353;SDS011;48391;49.184;2.418;2023-04-15T12:36:03;1.10;;;0.47;;
62353;SDS011;48391;49.184;2.418;2023-04-15T12:38:29;1.80;;;0.93;;
62353;SDS011;48391;49.184;2.418;2023-04-15T12:40:56;0.52;;;0.35;;
62353;SDS011;48391;49.184;2.418;2023-04-15T12:43:23;0.73;;;0.40;;
62353;SDS011;48391;49.184;2.418;2023-04-15T12:45:50;0.60;;;0.55;;
62353;SDS011;48391;49.184;2.418;2023-04-15T12:48:16;0.60;;;0.60;;
62353;SDS011;48391;49.184;2.418;2023-04-15T12:50:42;0.30;;;0.22;;
62353;SDS011;48391;49.184;2.418;2023-04-15T12:53:08;0.45;;;0.45;;
62353;SDS011;48391;49.184;2.418;2023-04-15T12:55:34;0.90;;;0.60;;
62353;SDS011;48391;49.184;2.418;2023-04-15T12:58:00;0.20;;;0.20;;
62353;SDS011;48391;49.184;2.418;2023-04-15T13:00:26;0.70;;;0.35;;
62353;SDS011;48391;49.184;2.418;2023-04-15T13:02:52;0.63;;;0.30;;
62353;SDS011;48391;49.184;2.418;2023-04-15T13:05:18;0.45;;;0.30;;
62353;SDS011;48391;49.184;2.418;2023-04-15T13:07:45;2.40;;;0.50;;
62353;SDS011;48391;49.184;2.418;2023-04-15T13:10:11;0.80;;;0.65;;
62353;SDS011;48391;49.184;2.418;2023-04-15T13:12:37;1.10;;;0.30;;
62353;SDS011;48391;49.184;2.418;2023-04-15T13:15:03;2.38;;;0.40;;
62353;SDS011;48391;49.184;2.418;2023-04-15T13:17:29;0.82;;;0.30;;
62353;SDS011;48391;49.184;2.418;2023-04-15T13:19:55;1.13;;;0.50;;
62353;SDS011;48391;49.184;2.418;2023-04-15T13:22:22;1.13;;;0.30;;
62353;SDS011;48391;49.184;2.418;2023-04-15T13:24:48;0.52;;;0.40;;
62353;SDS011;48391;49.184;2.418;2023-04-15T13:27:15;0.52;;;0.32;;
62353;SDS011;48391;49.184;2.418;2023-04-15T13:29:41;2.22;;;0.52;;
62353;SDS011;48391;49.184;2.418;2023-04-15T13:32:07;0.98;;;0.25;;
62353;SDS011;48391;49.184;2.418;2023-04-15T13:34:33;1.08;;;0.68;;
62353;SDS011;48391;49.184;2.418;2023-04-15T13:37:04;1.23;;;0.30;;
62353;SDS011;48391;49.184;2.418;2023-04-15T13:39:30;1.30;;;0.52;;
62353;SDS011;48391;49.184;2.418;2023-04-15T13:41:56;0.52;;;0.47;;
62353;SDS011;48391;49.184;2.418;2023-04-15T13:44:23;1.67;;;0.30;;
62353;SDS011;48391;49.184;2.418;2023-04-15T13:46:49;1.75;;;0.65;;
62353;SDS011;48391;49.184;2.418;2023-04-15T13:49:15;0.40;;;0.40;;
62353;SDS011;48391;49.184;2.418;2023-04-15T13:51:41;1.25;;;0.80;;
62353;SDS011;48391;49.184;2.418;2023-04-15T13:54:07;2.25;;;0.85;;
62353;SDS011;48391;49.184;2.418;2023-04-15T13:56:33;2.35;;;1.20;;
62353;SDS011;48391;49.184;2.418;2023-04-15T13:58:59;1.95;;;0.63;;
62353;SDS011;48391;49.184;2.418;2023-04-15T14:01:26;3.28;;;1.00;;
62353;SDS011;48391;49.184;2.418;2023-04-15T14:03:52;1.08;;;0.68;;
62353;SDS011;48391;49.184;2.418;2023-04-15T14:06:18;0.65;;;0.50;;
62353;SDS011;48391;49.184;2.418;2023-04-15T14:08:44;0.45;;;0.20;;
62353;SDS011;48391;49.184;2.418;2023-04-15T14:11:11;1.02;;;0.68;;
62353;SDS011;48391;49.184;2.418;2023-04-15T14:13:37;1.23;;;0.30;;
62353;SDS011;48391;49.184;2.418;2023-04-15T14:16:03;1.55;;;0.90;;
62353;SDS011;48391;49.184;2.418;2023-04-15T14:18:29;1.55;;;0.90;;
62353;SDS011;48391;49.184;2.418;2023-04-15T14:20:55;2.60;;;1.00;;
62353;SDS011;48391;49.184;2.418;2023-04-15T14:23:21;2.20;;;1.10;;
62353;SDS011;48391;49.184;2.418;2023-04-15T14:25:49;1.42;;;1.10;;
62353;SDS011;48391;49.184;2.418;2023-04-15T14:28:16;1.13;;;0.50;;
62353;SDS011;48391;49.184;2.418;2023-04-15T14:30:42;1.95;;;1.15;;
62353;SDS011;48391;49.184;2.418;2023-04-15T14:33:08;2.80;;;0.60;;
62353;SDS011;48391;49.184;2.418;2023-04-15T14:35:34;0.85;;;0.77;;
62353;SDS011;48391;49.184;2.418;2023-04-15T14:38:00;1.48;;;0.85;;
62353;SDS011;48391;49.184;2.418;2023-04-15T14:40:26;1.67;;;0.50;;
62353;SDS011;48391;49.184;2.418;2023-04-15T14:42:52;0.90;;;0.50;;
62353;SDS011;48391;49.184;2.418;2023-04-15T14:45:18;1.75;;;1.00;;
62353;SDS011;48391;49.184;2.418;2023-04-15T14:47:44;1.25;;;0.65;;
62353;SDS011;48391;49.184;2.418;2023-04-15T14:50:11;1.30;;;0.90;;
62353;SDS011;48391;49.184;2.418;2023-04-15T14:52:37;1.48;;;0.60;;
62353;SDS011;48391;49.184;2.418;2023-04-15T14:55:07;1.25;;;0.50;;
62353;SDS011;48391;49.184;2.418;2023-04-15T14:57:34;0.40;;;0.40;;
62353;SDS011;48391;49.184;2.418;2023-04-15T15:00:00;1.23;;;0.90;;
62353;SDS011;48391;49.184;2.418;2023-04-15T15:02:26;1.13;;;0.50;;
62353;SDS011;48391;49.184;2.418;2023-04-15T15:04:53;1.65;;;1.40;;
62353;SDS011;48391;49.184;2.418;2023-04-15T15:07:19;2.40;;;1.25;;
62353;SDS011;48391;49.184;2.418;2023-04-15T15:09:45;2.10;;;1.45;;